sensor_id;sensor_type;location;lat;lon;timestamp;pressure;altitude;pressure_sealevel;temperature;humidity
15487;BME280;7845;53.698;10.078;2023-04-24T00:02:18;99732.66;;;18.14;100.00
15487;BME280;7845;53.698;10.078;2023-04-24T00:04:44;99727.63;;;18.09;100.00
15487;BME280;7845;53.698;10.078;2023-04-24T00:07:14;99725.81;;;18.10;100.00
15487;BME280;7845;53.698;10.078;2023-04-24T00:09:52;99722.84;;;18.00;100.00
15487;BME280;7845;53.698;10.078;2023-04-24T00:12:19;99710.47;;;18.16;100.00
15487;BME280;7845;53.698;10.078;2023-04-24T00:14:45;99715.63;;;18.04;100.00
15487;BME280;7845;53.698;10.078;2023-04-24T00:17:13;99716.22;;;18.09;100.00
15487;BME280;7845;53.698;10.078;2023-04-24T00:19:39;99708.69;;;18.17;100.00
15487;BME280;7845;53.698;10.078;2023-04-24T00:22:10;99700.44;;;18.23;100.00
15487;BME280;7845;53.698;10.078;2023-04-24T00:24:36;99697.63;;;18.10;100.00
15487;BME280;7845;53.698;10.078;2023-04-24T00:27:07;99693.88;;;17.99;100.00
15487;BME280;7845;53.698;10.078;2023-04-24T00:29:32;99683.81;;;18.05;100.00
15487;BME280;7845;53.698;10.078;2023-04-24T00:31:58;99680.84;;;17.96;100.00
15487;BME280;7845;53.698;10.078;2023-04-24T00:34:23;99675.56;;;17.96;100.00
15487;BME280;7845;53.698;10.078;2023-04-24T00:36:49;99674.34;;;18.01;100.00
15487;BME280;7845;53.698;10.078;2023-04-24T00:39:20;99675.91;;;18.05;100.00
15487;BME280;7845;53.698;10.078;2023-04-24T00:41:52;99671.13;;;17.81;100.00
15487;BME280;7845;53.698;10.078;2023-04-24T00:44:18;99661.84;;;17.89;100.00
15487;BME280;7845;53.698;10.078;2023-04-24T00:46:45;99663.38;;;17.93;100.00
15487;BME280;7845;53.698;10.078;2023-04-24T00:49:11;99659.72;;;17.96;100.00
15487;BME280;7845;53.698;10.078;2023-04-24T00:51:37;99666.53;;;18.00;100.00
15487;BME280;7845;53.698;10.078;2023-04-24T00:54:02;99668.66;;;17.93;100.00
15487;BME280;7845;53.698;10.078;2023-04-24T00:56:29;99664.25;;;18.09;100.00
15487;BME280;7845;53.698;10.078;2023-04-24T00:58:55;99662.63;;;17.91;100.00
15487;BME280;7845;53.698;10.078;2023-04-24T01:01:21;99658.03;;;17.95;100.00
15487;BME280;7845;53.698;10.078;2023-04-24T01:03:49;99658.09;;;17.93;100.00
15487;BME280;7845;53.698;10.078;2023-04-24T01:06:19;99664.06;;;17.97;100.00
15487;BME280;7845;53.698;10.078;2023-04-24T01:08:50;99661.66;;;17.92;100.00
15487;BME280;7845;53.698;10.078;2023-04-24T01:11:17;99655.81;;;17.87;100.00
15487;BME280;7845;53.698;10.078;2023-04-24T01:13:42;99663.88;;;17.84;100.00
15487;BME280;7845;53.698;10.078;2023-04-24T01:16:08;99662.63;;;17.91;100.00
15487;BME280;7845;53.698;10.078;2023-04-24T01:18:33;99659.66;;;17.97;100.00
15487;BME280;7845;53.698;10.078;2023-04-24T01:21:02;99663.03;;;17.99;100.00
15487;BME280;7845;53.698;10.078;2023-04-24T01:23:29;99657.06;;;17.96;100.00
15487;BME280;7845;53.698;10.078;2023-04-24T01:25:57;99658.09;;;17.62;100.00
15487;BME280;7845;53.698;10.078;2023-04-24T01:28:23;99657.88;;;17.49;100.00
15487;BME280;7845;53.698;10.078;2023-04-24T01:30:48;99658.75;;;17.65;100.00
15487;BME280;7845;53.698;10.078;2023-04-24T01:33:14;99652.88;;;17.60;100.00
15487;BME280;7845;53.698;10.078;2023-04-24T01:35:40;99655.13;;;17.68;100.00
15487;BME280;7845;53.698;10.078;2023-04-24T01:38:06;99649.84;;;17.68;100.00
15487;BME280;7845;53.698;10.078;2023-04-24T01:40:33;99653.47;;;17.65;100.00
15487;BME280;7845;53.698;10.078;2023-04-24T01:42:59;99646.28;;;17.52;100.00
15487;BME280;7845;53.698;10.078;2023-04-24T01:45:25;99648.28;;;17.31;100.00
15487;BME280;7845;53.698;10.078;2023-04-24T01:47:51;99655.06;;;17.20;100.00
15487;BME280;7845;53.698;10.078;2023-04-24T01:50:16;99654.69;;;17.10;100.00
15487;BME280;7845;53.698;10.078;2023-04-24T01:52:42;99658.47;;;17.22;100.00
15487;BME280;7845;53.698;10.078;2023-04-24T01:55:10;99657.50;;;17.40;100.00
15487;BME280;7845;53.698;10.078;2023-04-24T01:57:35;99646.25;;;17.36;100.00
15487;BME280;7845;53.698;10.078;2023-04-24T02:00:02;99631.38;;;17.51;100.00
15487;BME280;7845;53.698;10.078;2023-04-24T02:02:29;99632.25;;;17.51;100.00
15487;BME280;7845;53.698;10.078;2023-04-24T02:04:58;99624.75;;;17.44;100.00
15487;BME280;7845;53.698;10.078;2023-04-24T02:07:23;99620.41;;;17.43;100.00
15487;BME280;7845;53.698;10.078;2023-04-24T02:09:50;99628.88;;;17.17;100.00
15487;BME280;7845;53.698;10.078;2023-04-24T02:12:27;99627.00;;;17.19;100.00
15487;BME280;7845;53.698;10.078;2023-04-24T02:14:53;99614.88;;;16.99;100.00
15487;BME280;7845;53.698;10.078;2023-04-24T02:17:18;99609.06;;;16.92;100.00
15487;BME280;7845;53.698;10.078;2023-04-24T02:19:44;99625.25;;;16.85;100.00
15487;BME280;7845;53.698;10.078;2023-04-24T02:22:09;99615.41;;;16.88;100.00
15487;BME280;7845;53.698;10.078;2023-04-24T02:24:36;99613.94;;;16.83;100.00
15487;BME280;7845;53.698;10.078;2023-04-24T02:27:03;99616.28;;;16.72;100.00
15487;BME280;7845;53.698;10.078;2023-04-24T02:29:29;99618.44;;;16.64;100.00
15487;BME280;7845;53.698;10.078;2023-04-24T02:31:54;99617.84;;;16.58;100.00
15487;BME280;7845;53.698;10.078;2023-04-24T02:34:22;99621.84;;;16.48;100.00
15487;BME280;7845;53.698;10.078;2023-04-24T02:36:48;99624.41;;;16.33;100.00
15487;BME280;7845;53.698;10.078;2023-04-24T02:39:14;99622.22;;;16.41;100.00
15487;BME280;7845;53.698;10.078;2023-04-24T02:41:41;99616.88;;;16.42;100.00
15487;BME280;7845;53.698;10.078;2023-04-24T02:44:07;99620.19;;;16.46;100.00
15487;BME280;7845;53.698;10.078;2023-04-24T02:46:32;99613.00;;;16.49;100.00
15487;BME280;7845;53.698;10.078;2023-04-24T02:48:57;99610.53;;;16.46;100.00
15487;BME280;7845;53.698;10.078;2023-04-24T02:51:23;99611.16;;;16.51;100.00
15487;BME280;7845;53.698;10.078;2023-04-24T02:53:50;99610.47;;;16.48;100.00
15487;BME280;7845;53.698;10.078;2023-04-24T02:56:15;99612.53;;;16.41;100.00
15487;BME280;7845;53.698;10.078;2023-04-24T02:58:40;99612.69;;;16.38;100.00
15487;BME280;7845;53.698;10.078;2023-04-24T03:01:08;99610.13;;;16.37;100.00
15487;BME280;7845;53.698;10.078;2023-04-24T03:03:35;99617.09;;;16.38;100.00
15487;BME280;7845;53.698;10.078;2023-04-24T03:06:01;99613.44;;;16.23;100.00
15487;BME280;7845;53.698;10.078;2023-04-24T03:08:27;99614.72;;;16.33;100.00
15487;BME280;7845;53.698;10.078;2023-04-24T03:10:52;99613.38;;;16.25;100.00
15487;BME280;7845;53.698;10.078;2023-04-24T03:13:17;99612.22;;;16.99;100.00
15487;BME280;7845;53.698;10.078;2023-04-24T03:15:43;99608.44;;;16.19;100.00
15487;BME280;7845;53.698;10.078;2023-04-24T03:18:08;99606.72;;;16.18;100.00
15487;BME280;7845;53.698;10.078;2023-04-24T03:20:33;99613.38;;;16.25;100.00
15487;BME280;7845;53.698;10.078;2023-04-24T03:23:00;99608.44;;;16.19;100.00
15487;BME280;7845;53.698;10.078;2023-04-24T03:25:26;99606.78;;;16.16;100.00
15487;BME280;7845;53.698;10.078;2023-04-24T03:27:52;99607.78;;;16.14;100.00
15487;BME280;7845;53.698;10.078;2023-04-24T03:30:17;99609.94;;;16.05;100.00
15487;BME280;7845;53.698;10.078;2023-04-24T03:32:43;99598.97;;;16.15;100.00
15487;BME280;7845;53.698;10.078;2023-04-24T03:35:08;99604.22;;;16.15;100.00
15487;BME280;7845;53.698;10.078;2023-04-24T03:37:34;99602.81;;;16.08;100.00
15487;BME280;7845;53.698;10.078;2023-04-24T03:39:59;99606.75;;;15.99;100.00
15487;BME280;7845;53.698;10.078;2023-04-24T03:42:25;99606.28;;;15.91;100.00
15487;BME280;7845;53.698;10.078;2023-04-24T03:44:50;99604.28;;;15.96;100.00
15487;BME280;7845;53.698;10.078;2023-04-24T03:47:15;99606.78;;;15.80;100.00
15487;BME280;7845;53.698;10.078;2023-04-24T03:49:41;99606.44;;;15.88;100.00
15487;BME280;7845;53.698;10.078;2023-04-24T03:52:06;99606.34;;;15.89;100.00
15487;BME280;7845;53.698;10.078;2023-04-24T03:54:34;99605.09;;;15.79;100.00
15487;BME280;7845;53.698;10.078;2023-04-24T03:57:03;99602.69;;;15.92;100.00
15487;BME280;7845;53.698;10.078;2023-04-24T03:59:30;99595.81;;;15.89;100.00
15487;BME280;7845;53.698;10.078;2023-04-24T04:01:55;99594.41;;;15.82;100.00
15487;BME280;7845;53.698;10.078;2023-04-24T04:04:20;99598.88;;;15.80;100.00
15487;BME280;7845;53.698;10.078;2023-04-24T04:06:52;99598.22;;;15.94;100.00
15487;BME280;7845;53.698;10.078;2023-04-24T04:09:18;99604.22;;;15.79;100.00
15487;BME280;7845;53.698;10.078;2023-04-24T04:11:43;99601.81;;;15.74;100.00
15487;BME280;7845;53.698;10.078;2023-04-24T04:14:09;99597.63;;;15.70;100.00
15487;BME280;7845;53.698;10.078;2023-04-24T04:16:34;99602.66;;;15.75;100.00
15487;BME280;7845;53.698;10.078;2023-04-24T04:19:01;99595.63;;;15.57;100.00
15487;BME280;7845;53.698;10.078;2023-04-24T04:21:28;99584.91;;;15.80;100.00
15487;BME280;7845;53.698;10.078;2023-04-24T04:23:54;99589.75;;;15.70;100.00
15487;BME280;7845;53.698;10.078;2023-04-24T04:26:19;99598.78;;;15.65;100.00
15487;BME280;7845;53.698;10.078;2023-04-24T04:28:46;99591.84;;;15.62;100.00
15487;BME280;7845;53.698;10.078;2023-04-24T04:31:13;99596.16;;;15.65;100.00
15487;BME280;7845;53.698;10.078;2023-04-24T04:33:39;99589.94;;;15.84;100.00
15487;BME280;7845;53.698;10.078;2023-04-24T04:36:05;99590.31;;;15.77;100.00
15487;BME280;7845;53.698;10.078;2023-04-24T04:38:31;99580.03;;;15.89;100.00
15487;BME280;7845;53.698;10.078;2023-04-24T04:40:57;99589.06;;;15.84;100.00
15487;BME280;7845;53.698;10.078;2023-04-24T04:43:23;99589.53;;;15.92;100.00
15487;BME280;7845;53.698;10.078;2023-04-24T04:45:49;99590.97;;;15.99;100.00
15487;BME280;7845;53.698;10.078;2023-04-24T04:48:16;99597.94;;;16.00;100.00
15487;BME280;7845;53.698;10.078;2023-04-24T04:50:43;99597.53;;;15.90;100.00
15487;BME280;7845;53.698;10.078;2023-04-24T04:53:08;99598.00;;;15.98;100.00
15487;BME280;7845;53.698;10.078;2023-04-24T04:55:33;99598.94;;;15.97;100.00
15487;BME280;7845;53.698;10.078;2023-04-24T04:58:04;99598.78;;;16.00;100.00
15487;BME280;7845;53.698;10.078;2023-04-24T05:00:30;99602.38;;;16.17;100.00
15487;BME280;7845;53.698;10.078;2023-04-24T05:03:01;99595.19;;;16.37;100.00
15487;BME280;7845;53.698;10.078;2023-04-24T05:05:28;99597.84;;;16.72;100.00
15487;BME280;7845;53.698;10.078;2023-04-24T05:07:54;99586.91;;;17.12;100.00
15487;BME280;7845;53.698;10.078;2023-04-24T05:10:19;99583.03;;;17.35;100.00
15487;BME280;7845;53.698;10.078;2023-04-24T05:12:45;99578.13;;;17.60;100.00
15487;BME280;7845;53.698;10.078;2023-04-24T05:15:11;99569.25;;;17.45;100.00
15487;BME280;7845;53.698;10.078;2023-04-24T05:17:37;99576.13;;;17.48;100.00
15487;BME280;7845;53.698;10.078;2023-04-24T05:20:03;99569.25;;;17.92;100.00
15487;BME280;7845;53.698;10.078;2023-04-24T05:22:32;99567.28;;;18.71;100.00
15487;BME280;7845;53.698;10.078;2023-04-24T05:24:57;99553.06;;;19.98;100.00
15487;BME280;7845;53.698;10.078;2023-04-24T05:27:23;99522.78;;;20.54;92.94
15487;BME280;7845;53.698;10.078;2023-04-24T05:29:49;99512.91;;;20.81;87.20
15487;BME280;7845;53.698;10.078;2023-04-24T05:32:15;99528.41;;;20.62;91.24
15487;BME280;7845;53.698;10.078;2023-04-24T05:34:40;99523.41;;;20.82;87.03
15487;BME280;7845;53.698;10.078;2023-04-24T05:37:05;99530.84;;;20.65;87.10
15487;BME280;7845;53.698;10.078;2023-04-24T05:39:34;99529.53;;;20.32;86.44
15487;BME280;7845;53.698;10.078;2023-04-24T05:42:00;99540.47;;;20.14;90.34
15487;BME280;7845;53.698;10.078;2023-04-24T05:44:26;99550.03;;;19.89;91.28
15487;BME280;7845;53.698;10.078;2023-04-24T05:46:51;99557.84;;;19.09;94.78
15487;BME280;7845;53.698;10.078;2023-04-24T05:49:17;99559.44;;;18.69;98.33
15487;BME280;7845;53.698;10.078;2023-04-24T05:51:42;99561.81;;;18.88;98.23
15487;BME280;7845;53.698;10.078;2023-04-24T05:54:07;99560.69;;;18.92;100.00
15487;BME280;7845;53.698;10.078;2023-04-24T05:56:33;99558.22;;;19.31;100.00
15487;BME280;7845;53.698;10.078;2023-04-24T05:58:58;99557.63;;;19.26;98.49
15487;BME280;7845;53.698;10.078;2023-04-24T06:01:23;99560.88;;;19.17;97.16
15487;BME280;7845;53.698;10.078;2023-04-24T06:03:50;99572.06;;;18.64;98.88
15487;BME280;7845;53.698;10.078;2023-04-24T06:06:15;99561.47;;;18.50;99.57
15487;BME280;7845;53.698;10.078;2023-04-24T06:08:41;99569.91;;;18.41;100.00
15487;BME280;7845;53.698;10.078;2023-04-24T06:11:07;99573.22;;;18.60;100.00
15487;BME280;7845;53.698;10.078;2023-04-24T06:13:33;99574.03;;;18.61;100.00
15487;BME280;7845;53.698;10.078;2023-04-24T06:15:58;99577.31;;;18.20;100.00
15487;BME280;7845;53.698;10.078;2023-04-24T06:18:23;99577.47;;;18.17;100.00
15487;BME280;7845;53.698;10.078;2023-04-24T06:20:50;99585.78;;;17.96;100.00
15487;BME280;7845;53.698;10.078;2023-04-24T06:23:15;99577.84;;;17.96;100.00
15487;BME280;7845;53.698;10.078;2023-04-24T06:25:42;99583.25;;;17.94;100.00
15487;BME280;7845;53.698;10.078;2023-04-24T06:28:16;99580.94;;;17.88;100.00
15487;BME280;7845;53.698;10.078;2023-04-24T06:30:42;99578.81;;;17.95;100.00
15487;BME280;7845;53.698;10.078;2023-04-24T06:33:08;99589.59;;;18.06;100.00
15487;BME280;7845;53.698;10.078;2023-04-24T06:35:36;99589.09;;;17.84;100.00
15487;BME280;7845;53.698;10.078;2023-04-24T06:38:03;99593.63;;;17.97;100.00
15487;BME280;7845;53.698;10.078;2023-04-24T06:40:28;99584.16;;;18.39;100.00
15487;BME280;7845;53.698;10.078;2023-04-24T06:42:54;99576.56;;;18.48;100.00
15487;BME280;7845;53.698;10.078;2023-04-24T06:45:19;99583.13;;;18.41;100.00
15487;BME280;7845;53.698;10.078;2023-04-24T06:47:45;99574.81;;;18.63;98.40
15487;BME280;7845;53.698;10.078;2023-04-24T06:50:10;99580.59;;;18.84;96.54
15487;BME280;7845;53.698;10.078;2023-04-24T06:52:36;99574.31;;;18.56;96.00
15487;BME280;7845;53.698;10.078;2023-04-24T06:55:05;99576.16;;;18.84;96.91
15487;BME280;7845;53.698;10.078;2023-04-24T06:57:31;99583.47;;;18.51;98.94
15487;BME280;7845;53.698;10.078;2023-04-24T06:59:59;99579.03;;;18.51;99.25
15487;BME280;7845;53.698;10.078;2023-04-24T07:02:28;99565.97;;;18.48;97.67
15487;BME280;7845;53.698;10.078;2023-04-24T07:04:56;99566.22;;;18.59;98.23
15487;BME280;7845;53.698;10.078;2023-04-24T07:07:22;99559.06;;;19.32;95.66
15487;BME280;7845;53.698;10.078;2023-04-24T07:09:49;99552.72;;;19.34;92.60
15487;BME280;7845;53.698;10.078;2023-04-24T07:12:14;99542.63;;;19.13;90.28
15487;BME280;7845;53.698;10.078;2023-04-24T07:14:39;99549.88;;;19.23;88.85
15487;BME280;7845;53.698;10.078;2023-04-24T07:17:05;99547.72;;;19.16;90.93
15487;BME280;7845;53.698;10.078;2023-04-24T07:19:32;99547.72;;;19.30;87.73
15487;BME280;7845;53.698;10.078;2023-04-24T07:22:01;99539.81;;;19.44;87.74
15487;BME280;7845;53.698;10.078;2023-04-24T07:24:27;99554.03;;;19.56;89.74
15487;BME280;7845;53.698;10.078;2023-04-24T07:26:53;99563.69;;;19.83;90.38
15487;BME280;7845;53.698;10.078;2023-04-24T07:29:19;99558.56;;;19.95;87.29
15487;BME280;7845;53.698;10.078;2023-04-24T07:31:48;99573.72;;;19.52;88.92
15487;BME280;7845;53.698;10.078;2023-04-24T07:34:16;99572.34;;;19.73;87.62
15487;BME280;7845;53.698;10.078;2023-04-24T07:36:41;99565.53;;;19.69;87.86
15487;BME280;7845;53.698;10.078;2023-04-24T07:39:18;99570.22;;;19.51;86.49
15487;BME280;7845;53.698;10.078;2023-04-24T07:41:43;99562.75;;;19.15;86.83
15487;BME280;7845;53.698;10.078;2023-04-24T07:44:08;99579.28;;;19.05;90.32
15487;BME280;7845;53.698;10.078;2023-04-24T07:46:34;99576.00;;;19.01;91.58
15487;BME280;7845;53.698;10.078;2023-04-24T07:48:59;99589.84;;;18.91;92.21
15487;BME280;7845;53.698;10.078;2023-04-24T07:51:26;99588.16;;;18.90;94.54
15487;BME280;7845;53.698;10.078;2023-04-24T07:53:56;99603.66;;;19.10;94.84
15487;BME280;7845;53.698;10.078;2023-04-24T07:56:21;99593.00;;;19.40;94.54
15487;BME280;7845;53.698;10.078;2023-04-24T07:58:46;99594.53;;;19.84;92.87
15487;BME280;7845;53.698;10.078;2023-04-24T08:01:12;99592.78;;;20.24;91.87
15487;BME280;7845;53.698;10.078;2023-04-24T08:03:37;99585.19;;;20.84;88.20
15487;BME280;7845;53.698;10.078;2023-04-24T08:06:04;99574.69;;;20.31;84.51
15487;BME280;7845;53.698;10.078;2023-04-24T08:08:29;99581.94;;;20.15;83.02
15487;BME280;7845;53.698;10.078;2023-04-24T08:10:55;99590.44;;;19.93;84.67
15487;BME280;7845;53.698;10.078;2023-04-24T08:13:20;99594.47;;;19.72;85.74
15487;BME280;7845;53.698;10.078;2023-04-24T08:15:46;99596.44;;;19.68;86.54
15487;BME280;7845;53.698;10.078;2023-04-24T08:18:11;99597.25;;;19.97;87.08
15487;BME280;7845;53.698;10.078;2023-04-24T08:20:37;99604.53;;;19.94;87.36
15487;BME280;7845;53.698;10.078;2023-04-24T08:23:06;99597.91;;;19.86;85.68
15487;BME280;7845;53.698;10.078;2023-04-24T08:25:31;99612.19;;;19.57;88.49
15487;BME280;7845;53.698;10.078;2023-04-24T08:27:57;99610.06;;;19.62;86.73
15487;BME280;7845;53.698;10.078;2023-04-24T08:30:22;99616.03;;;19.66;86.81
15487;BME280;7845;53.698;10.078;2023-04-24T08:32:48;99604.00;;;19.88;85.44
15487;BME280;7845;53.698;10.078;2023-04-24T08:35:13;99607.78;;;20.11;85.13
15487;BME280;7845;53.698;10.078;2023-04-24T08:37:38;99598.50;;;20.18;83.58
15487;BME280;7845;53.698;10.078;2023-04-24T08:40:09;99607.19;;;20.20;84.09
15487;BME280;7845;53.698;10.078;2023-04-24T08:42:37;99615.19;;;20.72;82.49
15487;BME280;7845;53.698;10.078;2023-04-24T08:45:04;99597.59;;;20.32;81.42
15487;BME280;7845;53.698;10.078;2023-04-24T08:47:30;99617.41;;;20.26;82.84
15487;BME280;7845;53.698;10.078;2023-04-24T08:49:56;99615.78;;;19.97;83.83
15487;BME280;7845;53.698;10.078;2023-04-24T08:52:22;99612.34;;;20.09;83.93
15487;BME280;7845;53.698;10.078;2023-04-24T08:54:49;99618.13;;;20.02;83.89
15487;BME280;7845;53.698;10.078;2023-04-24T08:57:15;99615.88;;;20.36;83.43
15487;BME280;7845;53.698;10.078;2023-04-24T08:59:41;99616.63;;;20.51;83.62
15487;BME280;7845;53.698;10.078;2023-04-24T09:02:10;99620.06;;;20.66;82.22
15487;BME280;7845;53.698;10.078;2023-04-24T09:04:37;99610.78;;;20.46;81.19
15487;BME280;7845;53.698;10.078;2023-04-24T09:07:03;99603.03;;;20.43;80.33
15487;BME280;7845;53.698;10.078;2023-04-24T09:09:32;99612.41;;;20.49;80.65
15487;BME280;7845;53.698;10.078;2023-04-24T09:11:58;99618.59;;;20.35;82.49
15487;BME280;7845;53.698;10.078;2023-04-24T09:14:24;99622.22;;;20.47;80.61
15487;BME280;7845;53.698;10.078;2023-04-24T09:16:50;99617.91;;;20.46;81.23
15487;BME280;7845;53.698;10.078;2023-04-24T09:19:16;99618.25;;;20.79;79.48
15487;BME280;7845;53.698;10.078;2023-04-24T09:21:45;99613.63;;;20.95;78.15
15487;BME280;7845;53.698;10.078;2023-04-24T09:24:18;99621.41;;;21.23;78.33
15487;BME280;7845;53.698;10.078;2023-04-24T09:26:46;99616.19;;;21.47;77.58
15487;BME280;7845;53.698;10.078;2023-04-24T09:29:15;99617.88;;;21.84;77.53
15487;BME280;7845;53.698;10.078;2023-04-24T09:31:42;99626.16;;;21.56;76.93
15487;BME280;7845;53.698;10.078;2023-04-24T09:34:07;99608.06;;;21.61;75.99
15487;BME280;7845;53.698;10.078;2023-04-24T09:36:38;99609.03;;;21.47;75.53
15487;BME280;7845;53.698;10.078;2023-04-24T09:39:14;99620.28;;;21.51;76.02
15487;BME280;7845;53.698;10.078;2023-04-24T09:41:55;99628.72;;;21.20;75.71
15487;BME280;7845;53.698;10.078;2023-04-24T09:44:25;99615.97;;;21.37;75.81
15487;BME280;7845;53.698;10.078;2023-04-24T09:46:53;99625.88;;;21.23;75.20
15487;BME280;7845;53.698;10.078;2023-04-24T09:49:24;99630.00;;;21.14;75.74
15487;BME280;7845;53.698;10.078;2023-04-24T09:51:50;99635.69;;;20.83;78.71
15487;BME280;7845;53.698;10.078;2023-04-24T09:54:20;99631.66;;;20.90;77.14
15487;BME280;7845;53.698;10.078;2023-04-24T09:56:49;99631.09;;;20.85;77.99
15487;BME280;7845;53.698;10.078;2023-04-24T09:59:16;99625.94;;;21.09;77.00
15487;BME280;7845;53.698;10.078;2023-04-24T10:01:42;99625.16;;;21.57;77.38
15487;BME280;7845;53.698;10.078;2023-04-24T10:04:20;99625.81;;;21.61;75.45
15487;BME280;7845;53.698;10.078;2023-04-24T10:06:48;99632.38;;;21.68;75.37
15487;BME280;7845;53.698;10.078;2023-04-24T10:09:14;99624.28;;;21.20;73.22
15487;BME280;7845;53.698;10.078;2023-04-24T10:11:45;99634.63;;;21.48;74.98
15487;BME280;7845;53.698;10.078;2023-04-24T10:14:17;99631.69;;;21.40;75.77
15487;BME280;7845;53.698;10.078;2023-04-24T10:16:44;99634.13;;;21.31;74.94
15487;BME280;7845;53.698;10.078;2023-04-24T10:19:12;99652.41;;;21.10;76.24
15487;BME280;7845;53.698;10.078;2023-04-24T10:21:39;99644.09;;;21.15;76.02
15487;BME280;7845;53.698;10.078;2023-04-24T10:24:08;99641.94;;;20.82;75.57
15487;BME280;7845;53.698;10.078;2023-04-24T10:26:34;99654.28;;;20.95;77.34
15487;BME280;7845;53.698;10.078;2023-04-24T10:29:00;99653.41;;;20.95;76.96
15487;BME280;7845;53.698;10.078;2023-04-24T10:31:28;99661.59;;;21.05;77.92
15487;BME280;7845;53.698;10.078;2023-04-24T10:33:56;99656.91;;;20.83;76.89
15487;BME280;7845;53.698;10.078;2023-04-24T10:36:23;99657.72;;;20.71;78.54
15487;BME280;7845;53.698;10.078;2023-04-24T10:38:52;99650.34;;;21.01;76.87
15487;BME280;7845;53.698;10.078;2023-04-24T10:41:21;99668.84;;;21.28;78.10
15487;BME280;7845;53.698;10.078;2023-04-24T10:44:07;99663.03;;;20.71;77.86
15487;BME280;7845;53.698;10.078;2023-04-24T10:46:33;99660.59;;;21.20;77.07
15487;BME280;7845;53.698;10.078;2023-04-24T10:48:59;99656.13;;;21.20;77.48
15487;BME280;7845;53.698;10.078;2023-04-24T10:51:48;99656.81;;;20.97;77.01
15487;BME280;7845;53.698;10.078;2023-04-24T10:54:25;99661.53;;;21.31;76.47
15487;BME280;7845;53.698;10.078;2023-04-24T10:56:51;99663.88;;;21.11;76.71
15487;BME280;7845;53.698;10.078;2023-04-24T10:59:25;99650.78;;;21.33;75.17
15487;BME280;7845;53.698;10.078;2023-04-24T11:01:54;99651.44;;;21.24;73.76
15487;BME280;7845;53.698;10.078;2023-04-24T11:04:31;99657.06;;;21.19;75.14
15487;BME280;7845;53.698;10.078;2023-04-24T11:06:57;99656.00;;;21.47;74.52
15487;BME280;7845;53.698;10.078;2023-04-24T11:09:26;99647.88;;;21.74;72.70
15487;BME280;7845;53.698;10.078;2023-04-24T11:12:03;99654.44;;;21.81;73.53
15487;BME280;7845;53.698;10.078;2023-04-24T11:14:29;99646.31;;;21.59;72.29
15487;BME280;7845;53.698;10.078;2023-04-24T11:16:54;99651.56;;;21.35;72.94
15487;BME280;7845;53.698;10.078;2023-04-24T11:19:25;99651.00;;;21.42;73.03
15487;BME280;7845;53.698;10.078;2023-04-24T11:22:14;99650.56;;;21.61;73.02
15487;BME280;7845;53.698;10.078;2023-04-24T11:24:50;99656.94;;;21.71;73.49
15487;BME280;7845;53.698;10.078;2023-04-24T11:27:20;99654.00;;;21.99;73.02
15487;BME280;7845;53.698;10.078;2023-04-24T11:34:58;99637.16;;;21.88;70.94
15487;BME280;7845;53.698;10.078;2023-04-24T11:37:26;99638.19;;;21.85;71.30
15487;BME280;7845;53.698;10.078;2023-04-24T11:39:53;99633.44;;;22.14;70.97
15487;BME280;7845;53.698;10.078;2023-04-24T11:42:21;99641.94;;;22.43;71.31
15487;BME280;7845;53.698;10.078;2023-04-24T11:44:49;99633.47;;;22.25;67.66
15487;BME280;7845;53.698;10.078;2023-04-24T11:47:15;99632.19;;;22.54;68.51
15487;BME280;7845;53.698;10.078;2023-04-24T11:49:41;99633.84;;;22.21;66.31
15487;BME280;7845;53.698;10.078;2023-04-24T11:52:06;99640.50;;;22.02;67.11
15487;BME280;7845;53.698;10.078;2023-04-24T11:54:32;99632.97;;;21.96;65.95
15487;BME280;7845;53.698;10.078;2023-04-24T11:56:57;99632.31;;;22.29;66.29
15487;BME280;7845;53.698;10.078;2023-04-24T11:59:23;99645.53;;;22.42;67.10
15487;BME280;7845;53.698;10.078;2023-04-24T12:01:49;99637.34;;;22.21;65.61
15487;BME280;7845;53.698;10.078;2023-04-24T12:04:16;99643.81;;;21.93;66.69
15487;BME280;7845;53.698;10.078;2023-04-24T12:07:03;99638.06;;;22.23;66.73
15487;BME280;7845;53.698;10.078;2023-04-24T12:09:57;99632.88;;;21.98;65.90
15487;BME280;7845;53.698;10.078;2023-04-24T12:12:26;99640.84;;;22.45;65.88
15487;BME280;7845;53.698;10.078;2023-04-24T12:14:56;99643.28;;;22.48;66.56
15487;BME280;7845;53.698;10.078;2023-04-24T12:17:33;99647.84;;;21.86;67.08
15487;BME280;7845;53.698;10.078;2023-04-24T12:20:04;99646.94;;;22.11;67.40
15487;BME280;7845;53.698;10.078;2023-04-24T12:25:17;99645.25;;;21.61;69.03
15487;BME280;7845;53.698;10.078;2023-04-24T12:27:51;99661.84;;;21.39;70.36
15487;BME280;7845;53.698;10.078;2023-04-24T12:30:17;99653.03;;;21.39;68.84
15487;BME280;7845;53.698;10.078;2023-04-24T12:32:46;99652.16;;;21.64;68.09
15487;BME280;7845;53.698;10.078;2023-04-24T12:35:13;99642.38;;;21.51;66.80
15487;BME280;7845;53.698;10.078;2023-04-24T12:37:38;99640.00;;;21.97;67.16
15487;BME280;7845;53.698;10.078;2023-04-24T12:40:09;99641.13;;;22.30;67.74
15487;BME280;7845;53.698;10.078;2023-04-24T12:42:35;99648.41;;;22.63;65.96
15487;BME280;7845;53.698;10.078;2023-04-24T12:45:06;99643.56;;;22.33;64.60
15487;BME280;7845;53.698;10.078;2023-04-24T12:47:33;99647.31;;;21.81;64.02
15487;BME280;7845;53.698;10.078;2023-04-24T12:49:59;99653.66;;;21.55;65.53
15487;BME280;7845;53.698;10.078;2023-04-24T12:52:27;99662.16;;;21.10;67.02
15487;BME280;7845;53.698;10.078;2023-04-24T12:54:53;99662.09;;;20.97;68.50
15487;BME280;7845;53.698;10.078;2023-04-24T12:57:20;99682.16;;;20.49;70.57
15487;BME280;7845;53.698;10.078;2023-04-24T12:59:46;99679.22;;;20.54;71.05
15487;BME280;7845;53.698;10.078;2023-04-24T13:02:11;99687.63;;;20.73;71.14
15487;BME280;7845;53.698;10.078;2023-04-24T13:04:37;99670.06;;;20.84;70.83